sensor_id;sensor_type;location;lat;lon;timestamp;P1;durP1;ratioP1;P2;durP2;ratioP2
73632;SDS011;61927;50.080;14.418;2023-11-22T00:00:53;3.28;;;2.30;;
73632;SDS011;61927;50.080;14.418;2023-11-22T00:03:32;2.20;;;2.10;;
73632;SDS011;61927;50.080;14.418;2023-11-22T00:05:58;2.03;;;1.92;;
73632;SDS011;61927;50.080;14.418;2023-11-22T00:08:24;2.17;;;2.03;;
73632;SDS011;61927;50.080;14.418;2023-11-22T00:10:50;2.10;;;2.00;;
73632;SDS011;61927;50.080;14.418;2023-11-22T00:13:15;2.28;;;2.08;;
73632;SDS011;61927;50.080;14.418;2023-11-22T00:15:41;2.10;;;2.00;;
73632;SDS011;61927;50.080;14.418;2023-11-22T00:18:06;5.57;;;2.00;;
73632;SDS011;61927;50.080;14.418;2023-11-22T00:20:32;2.20;;;2.00;;
73632;SDS011;61927;50.080;14.418;2023-11-22T00:22:59;5.53;;;2.55;;
73632;SDS011;61927;50.080;14.418;2023-11-22T00:25:25;2.72;;;1.95;;
73632;SDS011;61927;50.080;14.418;2023-11-22T00:27:50;2.28;;;2.10;;
73632;SDS011;61927;50.080;14.418;2023-11-22T00:30:16;2.00;;;1.88;;
73632;SDS011;61927;50.080;14.418;2023-11-22T00:32:42;3.05;;;2.15;;
73632;SDS011;61927;50.080;14.418;2023-11-22T00:35:08;2.20;;;2.10;;
73632;SDS011;61927;50.080;14.418;2023-11-22T00:37:33;2.47;;;2.28;;
73632;SDS011;61927;50.080;14.418;2023-11-22T00:40:00;2.15;;;2.05;;
73632;SDS011;61927;50.080;14.418;2023-11-22T00:42:31;2.90;;;2.60;;
73632;SDS011;61927;50.080;14.418;2023-11-22T00:44:57;6.60;;;2.78;;
73632;SDS011;61927;50.080;14.418;2023-11-22T00:47:22;2.47;;;2.38;;
73632;SDS011;61927;50.080;14.418;2023-11-22T00:49:48;2.90;;;2.70;;
73632;SDS011;61927;50.080;14.418;2023-11-22T00:52:13;2.88;;;2.67;;
73632;SDS011;61927;50.080;14.418;2023-11-22T00:54:39;3.35;;;2.53;;
73632;SDS011;61927;50.080;14.418;2023-11-22T00:57:04;4.97;;;3.20;;
73632;SDS011;61927;50.080;14.418;2023-11-22T00:59:32;3.03;;;2.78;;
73632;SDS011;61927;50.080;14.418;2023-11-22T01:01:57;3.50;;;3.20;;
73632;SDS011;61927;50.080;14.418;2023-11-22T01:04:24;6.72;;;3.17;;
73632;SDS011;61927;50.080;14.418;2023-11-22T01:06:49;8.05;;;3.45;;
73632;SDS011;61927;50.080;14.418;2023-11-22T01:09:15;3.95;;;3.50;;
73632;SDS011;61927;50.080;14.418;2023-11-22T01:11:40;3.90;;;3.50;;
73632;SDS011;61927;50.080;14.418;2023-11-22T01:14:06;4.32;;;3.70;;
73632;SDS011;61927;50.080;14.418;2023-11-22T01:16:32;3.58;;;3.28;;
73632;SDS011;61927;50.080;14.418;2023-11-22T01:18:57;4.40;;;3.85;;
73632;SDS011;61927;50.080;14.418;2023-11-22T01:21:23;3.90;;;3.58;;
73632;SDS011;61927;50.080;14.418;2023-11-22T01:23:48;4.60;;;4.18;;
73632;SDS011;61927;50.080;14.418;2023-11-22T01:26:14;4.68;;;4.22;;
73632;SDS011;61927;50.080;14.418;2023-11-22T01:28:39;6.30;;;4.40;;
73632;SDS011;61927;50.080;14.418;2023-11-22T01:31:10;5.38;;;4.50;;
73632;SDS011;61927;50.080;14.418;2023-11-22T01:33:36;6.03;;;4.95;;
73632;SDS011;61927;50.080;14.418;2023-11-22T01:36:02;6.03;;;4.50;;
73632;SDS011;61927;50.080;14.418;2023-11-22T01:38:28;5.50;;;5.00;;
73632;SDS011;61927;50.080;14.418;2023-11-22T01:40:53;6.75;;;5.68;;
73632;SDS011;61927;50.080;14.418;2023-11-22T01:43:19;6.28;;;5.57;;
73632;SDS011;61927;50.080;14.418;2023-11-22T01:45:49;6.22;;;5.63;;
73632;SDS011;61927;50.080;14.418;2023-11-22T01:48:15;7.43;;;6.28;;
73632;SDS011;61927;50.080;14.418;2023-11-22T01:50:41;8.65;;;6.28;;
73632;SDS011;61927;50.080;14.418;2023-11-22T01:53:08;7.97;;;6.47;;
73632;SDS011;61927;50.080;14.418;2023-11-22T01:55:37;8.48;;;6.80;;
73632;SDS011;61927;50.080;14.418;2023-11-22T01:58:05;10.32;;;7.13;;
73632;SDS011;61927;50.080;14.418;2023-11-22T02:00:32;9.55;;;7.10;;
73632;SDS011;61927;50.080;14.418;2023-11-22T02:03:01;11.52;;;6.85;;
73632;SDS011;61927;50.080;14.418;2023-11-22T02:05:27;10.70;;;7.70;;
73632;SDS011;61927;50.080;14.418;2023-11-22T02:07:53;9.70;;;7.78;;
73632;SDS011;61927;50.080;14.418;2023-11-22T02:10:19;8.35;;;7.40;;
73632;SDS011;61927;50.080;14.418;2023-11-22T02:12:44;10.85;;;8.32;;
73632;SDS011;61927;50.080;14.418;2023-11-22T02:15:11;9.55;;;7.25;;
73632;SDS011;61927;50.080;14.418;2023-11-22T02:17:37;10.32;;;7.60;;
73632;SDS011;61927;50.080;14.418;2023-11-22T02:20:02;10.63;;;7.10;;
73632;SDS011;61927;50.080;14.418;2023-11-22T02:22:31;7.97;;;6.85;;
73632;SDS011;61927;50.080;14.418;2023-11-22T02:24:57;10.68;;;8.27;;
73632;SDS011;61927;50.080;14.418;2023-11-22T02:27:23;8.15;;;6.75;;
73632;SDS011;61927;50.080;14.418;2023-11-22T02:29:48;9.48;;;6.80;;
73632;SDS011;61927;50.080;14.418;2023-11-22T02:32:15;9.73;;;7.63;;
73632;SDS011;61927;50.080;14.418;2023-11-22T02:34:41;10.43;;;7.57;;
73632;SDS011;61927;50.080;14.418;2023-11-22T02:37:06;11.05;;;7.03;;
73632;SDS011;61927;50.080;14.418;2023-11-22T02:39:49;10.05;;;7.35;;
73632;SDS011;61927;50.080;14.418;2023-11-22T02:42:23;9.00;;;7.20;;
73632;SDS011;61927;50.080;14.418;2023-11-22T02:44:49;11.32;;;7.60;;
73632;SDS011;61927;50.080;14.418;2023-11-22T02:47:14;8.27;;;6.43;;
73632;SDS011;61927;50.080;14.418;2023-11-22T02:49:40;10.90;;;6.97;;
73632;SDS011;61927;50.080;14.418;2023-11-22T02:52:05;9.63;;;7.07;;
73632;SDS011;61927;50.080;14.418;2023-11-22T02:54:31;7.07;;;5.72;;
73632;SDS011;61927;50.080;14.418;2023-11-22T02:56:56;8.23;;;5.70;;
73632;SDS011;61927;50.080;14.418;2023-11-22T02:59:22;8.35;;;6.50;;
73632;SDS011;61927;50.080;14.418;2023-11-22T03:01:48;6.75;;;6.05;;
73632;SDS011;61927;50.080;14.418;2023-11-22T03:04:13;11.45;;;6.72;;
73632;SDS011;61927;50.080;14.418;2023-11-22T03:06:39;8.43;;;6.25;;
73632;SDS011;61927;50.080;14.418;2023-11-22T03:09:05;8.15;;;5.80;;
73632;SDS011;61927;50.080;14.418;2023-11-22T03:11:31;7.97;;;6.00;;
73632;SDS011;61927;50.080;14.418;2023-11-22T03:13:57;7.55;;;6.57;;
73632;SDS011;61927;50.080;14.418;2023-11-22T03:16:23;9.48;;;6.05;;
73632;SDS011;61927;50.080;14.418;2023-11-22T03:18:49;7.78;;;5.90;;
73632;SDS011;61927;50.080;14.418;2023-11-22T03:21:16;8.35;;;6.60;;
73632;SDS011;61927;50.080;14.418;2023-11-22T03:23:42;7.47;;;5.97;;
73632;SDS011;61927;50.080;14.418;2023-11-22T03:26:08;8.02;;;6.20;;
73632;SDS011;61927;50.080;14.418;2023-11-22T03:28:34;8.50;;;6.32;;
73632;SDS011;61927;50.080;14.418;2023-11-22T03:31:00;10.00;;;6.97;;
73632;SDS011;61927;50.080;14.418;2023-11-22T03:33:28;8.70;;;6.50;;
73632;SDS011;61927;50.080;14.418;2023-11-22T03:35:53;12.43;;;7.63;;
73632;SDS011;61927;50.080;14.418;2023-11-22T03:38:19;10.43;;;7.35;;
73632;SDS011;61927;50.080;14.418;2023-11-22T03:40:46;10.60;;;7.70;;
73632;SDS011;61927;50.080;14.418;2023-11-22T03:43:12;10.13;;;8.00;;
73632;SDS011;61927;50.080;14.418;2023-11-22T03:45:38;11.07;;;8.45;;
73632;SDS011;61927;50.080;14.418;2023-11-22T03:48:04;12.20;;;8.52;;
73632;SDS011;61927;50.080;14.418;2023-11-22T03:50:29;11.65;;;8.45;;
73632;SDS011;61927;50.080;14.418;2023-11-22T03:52:55;13.90;;;9.88;;
73632;SDS011;61927;50.080;14.418;2023-11-22T03:55:20;11.57;;;8.90;;
73632;SDS011;61927;50.080;14.418;2023-11-22T03:57:46;11.85;;;9.18;;
73632;SDS011;61927;50.080;14.418;2023-11-22T04:00:12;13.75;;;9.48;;
73632;SDS011;61927;50.080;14.418;2023-11-22T04:02:39;13.30;;;9.25;;
73632;SDS011;61927;50.080;14.418;2023-11-22T04:05:05;14.40;;;9.73;;
73632;SDS011;61927;50.080;14.418;2023-11-22T04:07:32;12.65;;;9.18;;
73632;SDS011;61927;50.080;14.418;2023-11-22T04:09:58;14.50;;;9.50;;
73632;SDS011;61927;50.080;14.418;2023-11-22T04:12:24;11.82;;;8.68;;
73632;SDS011;61927;50.080;14.418;2023-11-22T04:14:50;14.43;;;9.02;;
73632;SDS011;61927;50.080;14.418;2023-11-22T04:17:16;13.30;;;9.30;;
73632;SDS011;61927;50.080;14.418;2023-11-22T04:19:43;13.13;;;9.30;;
73632;SDS011;61927;50.080;14.418;2023-11-22T04:22:09;12.50;;;9.15;;
73632;SDS011;61927;50.080;14.418;2023-11-22T04:24:36;13.13;;;9.32;;
73632;SDS011;61927;50.080;14.418;2023-11-22T04:27:01;10.13;;;8.30;;
73632;SDS011;61927;50.080;14.418;2023-11-22T04:29:28;13.07;;;9.23;;
73632;SDS011;61927;50.080;14.418;2023-11-22T04:31:53;13.27;;;9.95;;
73632;SDS011;61927;50.080;14.418;2023-11-22T04:34:19;12.40;;;9.10;;
73632;SDS011;61927;50.080;14.418;2023-11-22T04:36:45;12.82;;;8.60;;
73632;SDS011;61927;50.080;14.418;2023-11-22T04:39:12;14.48;;;9.50;;
73632;SDS011;61927;50.080;14.418;2023-11-22T04:41:38;14.63;;;10.07;;
73632;SDS011;61927;50.080;14.418;2023-11-22T04:44:04;13.15;;;9.52;;
73632;SDS011;61927;50.080;14.418;2023-11-22T04:46:29;13.45;;;9.63;;
73632;SDS011;61927;50.080;14.418;2023-11-22T04:48:56;15.07;;;9.68;;
73632;SDS011;61927;50.080;14.418;2023-11-22T04:51:22;14.55;;;9.90;;
73632;SDS011;61927;50.080;14.418;2023-11-22T04:53:49;15.23;;;9.93;;
73632;SDS011;61927;50.080;14.418;2023-11-22T04:56:16;15.85;;;10.85;;
73632;SDS011;61927;50.080;14.418;2023-11-22T04:58:42;17.55;;;11.18;;
73632;SDS011;61927;50.080;14.418;2023-11-22T05:01:08;15.70;;;10.45;;
73632;SDS011;61927;50.080;14.418;2023-11-22T05:03:35;15.77;;;10.82;;
73632;SDS011;61927;50.080;14.418;2023-11-22T05:06:00;18.35;;;12.32;;
73632;SDS011;61927;50.080;14.418;2023-11-22T05:08:26;16.35;;;11.30;;
73632;SDS011;61927;50.080;14.418;2023-11-22T05:10:52;19.17;;;11.73;;
73632;SDS011;61927;50.080;14.418;2023-11-22T05:13:18;17.23;;;11.13;;
73632;SDS011;61927;50.080;14.418;2023-11-22T05:15:43;18.73;;;12.43;;
73632;SDS011;61927;50.080;14.418;2023-11-22T05:18:09;16.98;;;12.15;;
73632;SDS011;61927;50.080;14.418;2023-11-22T05:20:34;19.88;;;12.52;;
73632;SDS011;61927;50.080;14.418;2023-11-22T05:23:00;19.17;;;12.40;;
73632;SDS011;61927;50.080;14.418;2023-11-22T05:25:26;16.90;;;12.07;;
73632;SDS011;61927;50.080;14.418;2023-11-22T05:27:52;19.85;;;12.60;;
73632;SDS011;61927;50.080;14.418;2023-11-22T05:30:17;19.52;;;13.02;;
73632;SDS011;61927;50.080;14.418;2023-11-22T05:32:43;18.98;;;12.43;;
73632;SDS011;61927;50.080;14.418;2023-11-22T05:35:09;17.20;;;12.27;;
73632;SDS011;61927;50.080;14.418;2023-11-22T05:37:35;22.52;;;12.93;;
73632;SDS011;61927;50.080;14.418;2023-11-22T05:40:02;20.63;;;13.25;;
73632;SDS011;61927;50.080;14.418;2023-11-22T05:42:29;21.30;;;13.48;;
73632;SDS011;61927;50.080;14.418;2023-11-22T05:44:55;19.13;;;12.75;;
73632;SDS011;61927;50.080;14.418;2023-11-22T05:47:21;19.42;;;13.10;;
73632;SDS011;61927;50.080;14.418;2023-11-22T05:49:47;20.15;;;12.25;;
73632;SDS011;61927;50.080;14.418;2023-11-22T05:52:12;17.65;;;12.57;;
73632;SDS011;61927;50.080;14.418;2023-11-22T05:54:38;23.92;;;14.50;;
73632;SDS011;61927;50.080;14.418;2023-11-22T05:57:03;21.85;;;12.82;;
73632;SDS011;61927;50.080;14.418;2023-11-22T05:59:29;21.33;;;12.35;;
73632;SDS011;61927;50.080;14.418;2023-11-22T06:01:55;18.40;;;12.65;;
73632;SDS011;61927;50.080;14.418;2023-11-22T06:04:21;18.38;;;12.68;;
73632;SDS011;61927;50.080;14.418;2023-11-22T06:06:46;22.42;;;13.05;;
73632;SDS011;61927;50.080;14.418;2023-11-22T06:09:12;19.15;;;13.23;;
73632;SDS011;61927;50.080;14.418;2023-11-22T06:11:40;19.67;;;13.23;;
73632;SDS011;61927;50.080;14.418;2023-11-22T06:14:05;22.65;;;14.20;;
73632;SDS011;61927;50.080;14.418;2023-11-22T06:16:31;21.20;;;13.10;;
73632;SDS011;61927;50.080;14.418;2023-11-22T06:18:58;22.58;;;13.43;;
73632;SDS011;61927;50.080;14.418;2023-11-22T06:21:23;19.90;;;12.98;;
73632;SDS011;61927;50.080;14.418;2023-11-22T06:23:52;24.83;;;13.82;;
73632;SDS011;61927;50.080;14.418;2023-11-22T06:26:20;19.85;;;12.88;;
73632;SDS011;61927;50.080;14.418;2023-11-22T06:28:46;20.25;;;12.73;;
73632;SDS011;61927;50.080;14.418;2023-11-22T06:31:14;22.02;;;13.27;;
73632;SDS011;61927;50.080;14.418;2023-11-22T06:33:40;19.90;;;12.55;;
73632;SDS011;61927;50.080;14.418;2023-11-22T06:36:06;21.92;;;13.23;;
73632;SDS011;61927;50.080;14.418;2023-11-22T06:38:32;20.73;;;12.98;;
73632;SDS011;61927;50.080;14.418;2023-11-22T06:40:58;19.45;;;13.05;;
73632;SDS011;61927;50.080;14.418;2023-11-22T06:43:23;18.15;;;11.68;;
73632;SDS011;61927;50.080;14.418;2023-11-22T06:45:49;18.75;;;13.23;;
73632;SDS011;61927;50.080;14.418;2023-11-22T06:48:15;20.17;;;13.27;;
73632;SDS011;61927;50.080;14.418;2023-11-22T06:50:41;21.70;;;13.77;;
73632;SDS011;61927;50.080;14.418;2023-11-22T06:53:07;24.10;;;14.63;;
73632;SDS011;61927;50.080;14.418;2023-11-22T06:55:33;19.88;;;13.48;;
73632;SDS011;61927;50.080;14.418;2023-11-22T06:57:58;20.38;;;13.15;;
73632;SDS011;61927;50.080;14.418;2023-11-22T07:00:24;25.90;;;13.93;;
73632;SDS011;61927;50.080;14.418;2023-11-22T07:02:51;21.50;;;13.27;;
73632;SDS011;61927;50.080;14.418;2023-11-22T07:05:17;19.70;;;13.05;;
73632;SDS011;61927;50.080;14.418;2023-11-22T07:07:44;18.65;;;12.23;;
73632;SDS011;61927;50.080;14.418;2023-11-22T07:10:09;20.17;;;13.13;;
73632;SDS011;61927;50.080;14.418;2023-11-22T07:12:36;19.00;;;12.70;;
73632;SDS011;61927;50.080;14.418;2023-11-22T07:15:03;20.98;;;12.70;;
73632;SDS011;61927;50.080;14.418;2023-11-22T07:17:30;18.48;;;12.35;;
73632;SDS011;61927;50.080;14.418;2023-11-22T07:19:58;27.08;;;12.15;;
73632;SDS011;61927;50.080;14.418;2023-11-22T07:22:26;16.63;;;11.95;;
73632;SDS011;61927;50.080;14.418;2023-11-22T07:24:52;20.85;;;14.05;;
73632;SDS011;61927;50.080;14.418;2023-11-22T07:27:19;21.23;;;12.90;;
73632;SDS011;61927;50.080;14.418;2023-11-22T07:29:46;18.95;;;12.40;;
73632;SDS011;61927;50.080;14.418;2023-11-22T07:32:12;19.40;;;13.50;;
73632;SDS011;61927;50.080;14.418;2023-11-22T07:34:38;23.05;;;13.93;;
73632;SDS011;61927;50.080;14.418;2023-11-22T07:37:05;23.90;;;13.70;;
73632;SDS011;61927;50.080;14.418;2023-11-22T07:39:34;21.20;;;12.98;;
73632;SDS011;61927;50.080;14.418;2023-11-22T07:42:01;26.30;;;14.10;;
73632;SDS011;61927;50.080;14.418;2023-11-22T07:44:27;23.23;;;13.95;;
73632;SDS011;61927;50.080;14.418;2023-11-22T07:46:53;22.15;;;14.52;;
73632;SDS011;61927;50.080;14.418;2023-11-22T07:49:19;25.73;;;14.73;;
73632;SDS011;61927;50.080;14.418;2023-11-22T07:51:46;27.60;;;15.13;;
73632;SDS011;61927;50.080;14.418;2023-11-22T07:54:12;22.90;;;14.35;;
73632;SDS011;61927;50.080;14.418;2023-11-22T07:56:43;24.65;;;14.48;;
73632;SDS011;61927;50.080;14.418;2023-11-22T07:59:12;22.13;;;14.63;;
73632;SDS011;61927;50.080;14.418;2023-11-22T08:01:38;22.63;;;14.57;;
73632;SDS011;61927;50.080;14.418;2023-11-22T08:04:04;25.83;;;14.32;;
73632;SDS011;61927;50.080;14.418;2023-11-22T08:06:33;21.02;;;14.48;;
73632;SDS011;61927;50.080;14.418;2023-11-22T08:08:59;26.27;;;14.50;;
73632;SDS011;61927;50.080;14.418;2023-11-22T08:11:26;23.63;;;14.73;;
73632;SDS011;61927;50.080;14.418;2023-11-22T08:13:53;23.55;;;14.43;;
73632;SDS011;61927;50.080;14.418;2023-11-22T08:16:22;28.52;;;15.10;;
73632;SDS011;61927;50.080;14.418;2023-11-22T08:18:48;27.23;;;14.15;;
73632;SDS011;61927;50.080;14.418;2023-11-22T08:21:14;26.63;;;15.07;;
73632;SDS011;61927;50.080;14.418;2023-11-22T08:23:40;23.92;;;14.57;;
73632;SDS011;61927;50.080;14.418;2023-11-22T08:26:05;24.75;;;14.90;;
73632;SDS011;61927;50.080;14.418;2023-11-22T08:28:33;27.98;;;16.23;;
73632;SDS011;61927;50.080;14.418;2023-11-22T08:30:59;25.77;;;15.90;;
73632;SDS011;61927;50.080;14.418;2023-11-22T08:33:26;26.67;;;16.13;;
73632;SDS011;61927;50.080;14.418;2023-11-22T08:35:51;23.95;;;16.40;;
73632;SDS011;61927;50.080;14.418;2023-11-22T08:38:24;25.33;;;15.93;;
73632;SDS011;61927;50.080;14.418;2023-11-22T08:40:51;28.80;;;17.55;;
73632;SDS011;61927;50.080;14.418;2023-11-22T08:43:17;38.13;;;16.63;;
73632;SDS011;61927;50.080;14.418;2023-11-22T08:45:48;29.77;;;16.02;;
73632;SDS011;61927;50.080;14.418;2023-11-22T08:48:14;29.38;;;17.52;;
73632;SDS011;61927;50.080;14.418;2023-11-22T08:50:42;34.53;;;16.80;;
73632;SDS011;61927;50.080;14.418;2023-11-22T08:53:10;31.35;;;17.33;;
73632;SDS011;61927;50.080;14.418;2023-11-22T08:55:35;27.20;;;17.02;;
73632;SDS011;61927;50.080;14.418;2023-11-22T08:58:02;26.50;;;16.80;;
73632;SDS011;61927;50.080;14.418;2023-11-22T09:00:27;28.30;;;17.20;;
73632;SDS011;61927;50.080;14.418;2023-11-22T09:02:54;29.67;;;16.85;;
73632;SDS011;61927;50.080;14.418;2023-11-22T09:05:20;33.70;;;17.67;;
73632;SDS011;61927;50.080;14.418;2023-11-22T09:07:47;31.77;;;16.67;;
73632;SDS011;61927;50.080;14.418;2023-11-22T09:10:12;37.65;;;21.23;;
73632;SDS011;61927;50.080;14.418;2023-11-22T09:12:40;30.10;;;17.42;;
73632;SDS011;61927;50.080;14.418;2023-11-22T09:15:06;29.35;;;17.27;;
73632;SDS011;61927;50.080;14.418;2023-11-22T09:17:37;34.78;;;18.80;;
73632;SDS011;61927;50.080;14.418;2023-11-22T09:20:08;36.53;;;18.40;;
73632;SDS011;61927;50.080;14.418;2023-11-22T09:22:46;34.83;;;17.67;;
73632;SDS011;61927;50.080;14.418;2023-11-22T09:25:14;31.00;;;17.30;;
73632;SDS011;61927;50.080;14.418;2023-11-22T09:27:45;30.55;;;16.88;;
73632;SDS011;61927;50.080;14.418;2023-11-22T09:30:12;31.90;;;17.25;;
73632;SDS011;61927;50.080;14.418;2023-11-22T09:32:45;29.10;;;16.23;;
73632;SDS011;61927;50.080;14.418;2023-11-22T09:35:15;29.42;;;16.27;;
73632;SDS011;61927;50.080;14.418;2023-11-22T09:37:41;27.70;;;16.35;;
73632;SDS011;61927;50.080;14.418;2023-11-22T09:40:08;28.65;;;14.85;;
73632;SDS011;61927;50.080;14.418;2023-11-22T09:42:35;28.88;;;16.73;;
73632;SDS011;61927;50.080;14.418;2023-11-22T09:45:00;34.08;;;17.15;;
73632;SDS011;61927;50.080;14.418;2023-11-22T09:47:28;34.00;;;16.98;;
73632;SDS011;61927;50.080;14.418;2023-11-22T09:50:00;32.65;;;16.33;;
73632;SDS011;61927;50.080;14.418;2023-11-22T09:52:33;23.77;;;16.02;;
73632;SDS011;61927;50.080;14.418;2023-11-22T09:55:02;30.65;;;17.25;;
73632;SDS011;61927;50.080;14.418;2023-11-22T09:57:28;27.30;;;16.98;;
73632;SDS011;61927;50.080;14.418;2023-11-22T09:59:55;26.88;;;16.55;;
73632;SDS011;61927;50.080;14.418;2023-11-22T10:02:23;30.15;;;16.63;;
73632;SDS011;61927;50.080;14.418;2023-11-22T10:04:52;27.25;;;16.52;;
73632;SDS011;61927;50.080;14.418;2023-11-22T10:07:19;27.20;;;16.52;;
73632;SDS011;61927;50.080;14.418;2023-11-22T10:09:45;33.15;;;15.30;;
73632;SDS011;61927;50.080;14.418;2023-11-22T10:12:14;25.58;;;14.48;;
73632;SDS011;61927;50.080;14.418;2023-11-22T10:14:46;27.63;;;16.05;;
73632;SDS011;61927;50.080;14.418;2023-11-22T10:17:13;31.40;;;15.27;;
73632;SDS011;61927;50.080;14.418;2023-11-22T10:19:41;25.92;;;14.43;;
73632;SDS011;61927;50.080;14.418;2023-11-22T10:22:07;32.55;;;14.90;;
73632;SDS011;61927;50.080;14.418;2023-11-22T10:24:34;24.55;;;14.02;;
73632;SDS011;61927;50.080;14.418;2023-11-22T10:27:01;28.15;;;14.93;;
73632;SDS011;61927;50.080;14.418;2023-11-22T10:29:27;25.08;;;15.13;;
73632;SDS011;61927;50.080;14.418;2023-11-22T10:31:54;28.05;;;16.08;;
73632;SDS011;61927;50.080;14.418;2023-11-22T10:34:23;26.10;;;14.75;;
73632;SDS011;61927;50.080;14.418;2023-11-22T10:36:50;26.75;;;15.23;;
73632;SDS011;61927;50.080;14.418;2023-11-22T10:39:22;21.63;;;14.68;;
73632;SDS011;61927;50.080;14.418;2023-11-22T10:41:48;32.97;;;15.60;;
73632;SDS011;61927;50.080;14.418;2023-11-22T10:44:16;23.73;;;14.13;;
73632;SDS011;61927;50.080;14.418;2023-11-22T10:46:45;26.92;;;14.57;;
73632;SDS011;61927;50.080;14.418;2023-11-22T10:49:12;24.05;;;15.27;;
73632;SDS011;61927;50.080;14.418;2023-11-22T10:51:39;24.17;;;15.20;;
73632;SDS011;61927;50.080;14.418;2023-11-22T10:54:06;29.50;;;16.17;;
73632;SDS011;61927;50.080;14.418;2023-11-22T10:56:38;31.48;;;17.20;;
73632;SDS011;61927;50.080;14.418;2023-11-22T10:59:10;30.35;;;16.98;;
73632;SDS011;61927;50.080;14.418;2023-11-22T11:01:40;27.27;;;15.93;;
73632;SDS011;61927;50.080;14.418;2023-11-22T11:04:23;29.52;;;16.02;;
73632;SDS011;61927;50.080;14.418;2023-11-22T11:06:54;30.00;;;15.82;;
73632;SDS011;61927;50.080;14.418;2023-11-22T11:09:23;27.20;;;16.15;;
73632;SDS011;61927;50.080;14.418;2023-11-22T11:12:00;33.72;;;17.13;;
73632;SDS011;61927;50.080;14.418;2023-11-22T11:14:28;29.60;;;15.82;;
73632;SDS011;61927;50.080;14.418;2023-11-22T11:16:55;27.17;;;15.65;;
73632;SDS011;61927;50.080;14.418;2023-11-22T11:19:23;28.23;;;14.90;;
73632;SDS011;61927;50.080;14.418;2023-11-22T11:21:50;31.58;;;16.20;;
73632;SDS011;61927;50.080;14.418;2023-11-22T11:24:16;25.73;;;15.65;;
73632;SDS011;61927;50.080;14.418;2023-11-22T11:26:48;27.98;;;15.07;;
73632;SDS011;61927;50.080;14.418;2023-11-22T11:29:30;27.90;;;14.93;;
73632;SDS011;61927;50.080;14.418;2023-11-22T11:31:57;26.73;;;15.15;;
73632;SDS011;61927;50.080;14.418;2023-11-22T11:34:23;27.23;;;17.13;;
73632;SDS011;61927;50.080;14.418;2023-11-22T11:36:52;36.47;;;15.60;;
73632;SDS011;61927;50.080;14.418;2023-11-22T11:39:24;24.00;;;14.43;;
73632;SDS011;61927;50.080;14.418;2023-11-22T11:42:09;26.92;;;13.70;;
73632;SDS011;61927;50.080;14.418;2023-11-22T11:44:36;27.77;;;15.27;;
73632;SDS011;61927;50.080;14.418;2023-11-22T11:47:08;24.52;;;14.82;;
73632;SDS011;61927;50.080;14.418;2023-11-22T11:49:39;28.23;;;15.13;;
73632;SDS011;61927;50.080;14.418;2023-11-22T11:52:06;26.67;;;14.93;;
73632;SDS011;61927;50.080;14.418;2023-11-22T11:54:33;31.67;;;16.17;;
73632;SDS011;61927;50.080;14.418;2023-11-22T11:56:59;32.75;;;15.88;;
73632;SDS011;61927;50.080;14.418;2023-11-22T11:59:26;22.85;;;14.70;;
73632;SDS011;61927;50.080;14.418;2023-11-22T12:01:52;31.23;;;14.43;;
73632;SDS011;61927;50.080;14.418;2023-11-22T12:04:22;28.35;;;14.60;;
73632;SDS011;61927;50.080;14.418;2023-11-22T12:06:48;24.75;;;14.40;;
73632;SDS011;61927;50.080;14.418;2023-11-22T12:09:21;26.20;;;15.38;;
73632;SDS011;61927;50.080;14.418;2023-11-22T12:11:54;30.23;;;15.82;;
73632;SDS011;61927;50.080;14.418;2023-11-22T12:14:20;29.20;;;15.57;;
73632;SDS011;61927;50.080;14.418;2023-11-22T12:16:47;28.40;;;16.45;;
73632;SDS011;61927;50.080;14.418;2023-11-22T12:19:22;29.08;;;15.55;;
73632;SDS011;61927;50.080;14.418;2023-11-22T12:21:56;29.15;;;15.07;;
73632;SDS011;61927;50.080;14.418;2023-11-22T12:24:22;36.95;;;16.35;;
73632;SDS011;61927;50.080;14.418;2023-11-22T12:26:50;31.40;;;15.20;;
73632;SDS011;61927;50.080;14.418;2023-11-22T12:29:18;32.17;;;15.05;;
73632;SDS011;61927;50.080;14.418;2023-11-22T12:31:45;36.88;;;15.30;;
73632;SDS011;61927;50.080;14.418;2023-11-22T12:34:14;29.50;;;15.05;;
73632;SDS011;61927;50.080;14.418;2023-11-22T12:36:40;28.55;;;14.63;;
73632;SDS011;61927;50.080;14.418;2023-11-22T12:39:07;29.85;;;16.52;;
73632;SDS011;61927;50.080;14.418;2023-11-22T12:41:41;33.08;;;15.95;;
73632;SDS011;61927;50.080;14.418;2023-11-22T12:44:07;28.08;;;14.75;;
73632;SDS011;61927;50.080;14.418;2023-11-22T12:49:43;28.15;;;14.35;;
73632;SDS011;61927;50.080;14.418;2023-11-22T12:52:11;27.15;;;14.27;;
73632;SDS011;61927;50.080;14.418;2023-11-22T12:54:38;25.02;;;13.70;;
73632;SDS011;61927;50.080;14.418;2023-11-22T12:57:09;29.25;;;13.25;;
73632;SDS011;61927;50.080;14.418;2023-11-22T12:59:38;24.55;;;13.32;;
73632;SDS011;61927;50.080;14.418;2023-11-22T13:02:05;31.50;;;14.43;;
73632;SDS011;61927;50.080;14.418;2023-11-22T13:04:32;23.35;;;13.68;;
73632;SDS011;61927;50.080;14.418;2023-11-22T13:06:58;26.73;;;13.57;;
73632;SDS011;61927;50.080;14.418;2023-11-22T13:09:25;28.02;;;13.85;;
73632;SDS011;61927;50.080;14.418;2023-11-22T13:11:52;26.45;;;14.85;;
73632;SDS011;61927;50.080;14.418;2023-11-22T13:14:18;24.90;;;12.93;;
73632;SDS011;61927;50.080;14.418;2023-11-22T13:16:44;25.75;;;13.50;;
73632;SDS011;61927;50.080;14.418;2023-11-22T13:19:10;19.75;;;12.55;;
73632;SDS011;61927;50.080;14.418;2023-11-22T13:21:36;29.67;;;13.50;;
73632;SDS011;61927;50.080;14.418;2023-11-22T13:24:02;23.65;;;13.65;;
73632;SDS011;61927;50.080;14.418;2023-11-22T13:26:29;22.60;;;13.57;;
73632;SDS011;61927;50.080;14.418;2023-11-22T13:29:00;26.58;;;15.18;;
73632;SDS011;61927;50.080;14.418;2023-11-22T13:31:41;34.50;;;14.35;;
73632;SDS011;61927;50.080;14.418;2023-11-22T13:34:08;29.20;;;14.10;;
73632;SDS011;61927;50.080;14.418;2023-11-22T13:36:36;28.10;;;14.23;;
73632;SDS011;61927;50.080;14.418;2023-11-22T13:39:11;22.38;;;13.50;;
73632;SDS011;61927;50.080;14.418;2023-11-22T13:41:40;20.88;;;13.55;;
73632;SDS011;61927;50.080;14.418;2023-11-22T13:44:10;22.30;;;14.15;;
73632;SDS011;61927;50.080;14.418;2023-11-22T13:46:41;23.02;;;14.30;;
73632;SDS011;61927;50.080;14.418;2023-11-22T13:49:11;22.48;;;13.98;;
73632;SDS011;61927;50.080;14.418;2023-11-22T13:51:49;30.63;;;15.20;;
73632;SDS011;61927;50.080;14.418;2023-11-22T13:54:17;22.83;;;14.52;;
73632;SDS011;61927;50.080;14.418;2023-11-22T13:56:45;22.95;;;14.10;;
73632;SDS011;61927;50.080;14.418;2023-11-22T13:59:16;26.35;;;13.95;;
73632;SDS011;61927;50.080;14.418;2023-11-22T14:01:43;28.50;;;14.60;;
73632;SDS011;61927;50.080;14.418;2023-11-22T14:04:25;25.63;;;13.65;;
73632;SDS011;61927;50.080;14.418;2023-11-22T14:06:52;22.90;;;13.85;;
73632;SDS011;61927;50.080;14.418;2023-11-22T14:09:26;26.77;;;15.13;;
73632;SDS011;61927;50.080;14.418;2023-11-22T14:11:52;25.75;;;15.27;;
73632;SDS011;61927;50.080;14.418;2023-11-22T14:14:25;37.63;;;14.38;;
73632;SDS011;61927;50.080;14.418;2023-11-22T14:16:51;30.00;;;16.00;;
73632;SDS011;61927;50.080;14.418;2023-11-22T14:19:16;25.83;;;13.85;;